sensor_id;sensor_type;location;lat;lon;timestamp;pressure;altitude;pressure_sealevel;temperature;humidity
21011;BME280;10663;42.714;23.274;2023-02-20T00:01:12;95100.91;;;9.74;62.67
21011;BME280;10663;42.714;23.274;2023-02-20T00:02:43;95110.38;;;9.70;62.69
21011;BME280;10663;42.714;23.274;2023-02-20T00:04:14;95106.38;;;9.67;63.04
21011;BME280;10663;42.714;23.274;2023-02-20T00:05:45;95105.00;;;9.60;63.59
21011;BME280;10663;42.714;23.274;2023-02-20T00:07:16;95108.47;;;9.65;63.63
21011;BME280;10663;42.714;23.274;2023-02-20T00:08:47;95099.94;;;9.58;63.79
21011;BME280;10663;42.714;23.274;2023-02-20T00:10:17;95098.06;;;9.54;64.05
21011;BME280;10663;42.714;23.274;2023-02-20T00:11:48;95093.00;;;9.52;64.20
21011;BME280;10663;42.714;23.274;2023-02-20T00:13:19;95089.53;;;9.47;64.49
21011;BME280;10663;42.714;23.274;2023-02-20T00:14:50;95100.88;;;9.47;64.65
21011;BME280;10663;42.714;23.274;2023-02-20T00:16:21;95090.25;;;9.42;64.79
21011;BME280;10663;42.714;23.274;2023-02-20T00:17:52;95091.00;;;9.37;65.10
21011;BME280;10663;42.714;23.274;2023-02-20T00:19:22;95090.72;;;9.39;65.21
21011;BME280;10663;42.714;23.274;2023-02-20T00:20:53;95099.19;;;9.36;65.50
21011;BME280;10663;42.714;23.274;2023-02-20T00:22:25;95091.97;;;9.31;65.64
21011;BME280;10663;42.714;23.274;2023-02-20T00:23:56;95105.56;;;9.40;65.76
21011;BME280;10663;42.714;23.274;2023-02-20T00:25:27;95104.09;;;9.27;66.04
21011;BME280;10663;42.714;23.274;2023-02-20T00:26:57;95102.75;;;9.25;66.71
21011;BME280;10663;42.714;23.274;2023-02-20T00:28:28;95105.94;;;9.27;66.58
21011;BME280;10663;42.714;23.274;2023-02-20T00:29:59;95090.88;;;9.27;66.72
21011;BME280;10663;42.714;23.274;2023-02-20T00:31:30;95089.53;;;9.25;66.75
21011;BME280;10663;42.714;23.274;2023-02-20T00:33:01;95092.88;;;9.20;67.30
21011;BME280;10663;42.714;23.274;2023-02-20T00:34:32;95088.97;;;9.23;67.23
21011;BME280;10663;42.714;23.274;2023-02-20T00:36:03;95081.84;;;9.23;67.54
21011;BME280;10663;42.714;23.274;2023-02-20T00:37:34;95106.97;;;9.26;67.29
21011;BME280;10663;42.714;23.274;2023-02-20T00:39:05;95075.31;;;9.31;67.15
21011;BME280;10663;42.714;23.274;2023-02-20T00:40:36;95070.84;;;9.31;67.14
21011;BME280;10663;42.714;23.274;2023-02-20T00:42:07;95083.25;;;9.31;67.36
21011;BME280;10663;42.714;23.274;2023-02-20T00:43:39;95082.41;;;9.25;67.33
21011;BME280;10663;42.714;23.274;2023-02-20T00:45:11;95099.09;;;9.31;67.49
21011;BME280;10663;42.714;23.274;2023-02-20T00:46:42;95098.53;;;9.29;67.38
21011;BME280;10663;42.714;23.274;2023-02-20T00:48:16;95107.53;;;9.28;67.36
21011;BME280;10663;42.714;23.274;2023-02-20T00:49:47;95103.53;;;9.25;67.44
21011;BME280;10663;42.714;23.274;2023-02-20T00:51:18;95106.38;;;9.19;67.91
21011;BME280;10663;42.714;23.274;2023-02-20T00:52:49;95109.06;;;9.24;67.62
21011;BME280;10663;42.714;23.274;2023-02-20T00:54:21;95118.22;;;9.16;67.82
21011;BME280;10663;42.714;23.274;2023-02-20T00:55:52;95133.28;;;9.16;67.83
21011;BME280;10663;42.714;23.274;2023-02-20T00:57:23;95130.63;;;9.16;67.96
21011;BME280;10663;42.714;23.274;2023-02-20T00:58:53;95163.13;;;9.16;67.96
21011;BME280;10663;42.714;23.274;2023-02-20T01:00:28;95146.47;;;9.16;67.90
21011;BME280;10663;42.714;23.274;2023-02-20T01:01:59;95140.63;;;9.14;68.29
21011;BME280;10663;42.714;23.274;2023-02-20T01:03:30;95145.13;;;9.13;68.23
21011;BME280;10663;42.714;23.274;2023-02-20T01:05:01;95141.69;;;9.13;68.34
21011;BME280;10663;42.714;23.274;2023-02-20T01:06:32;95155.41;;;9.10;68.81
21011;BME280;10663;42.714;23.274;2023-02-20T01:08:03;95148.50;;;9.09;68.85
21011;BME280;10663;42.714;23.274;2023-02-20T01:09:34;95145.78;;;9.04;68.79
21011;BME280;10663;42.714;23.274;2023-02-20T01:11:05;95149.53;;;9.08;68.83
21011;BME280;10663;42.714;23.274;2023-02-20T01:12:36;95144.50;;;9.06;68.90
21011;BME280;10663;42.714;23.274;2023-02-20T01:14:07;95138.97;;;9.08;68.97
21011;BME280;10663;42.714;23.274;2023-02-20T01:15:38;95135.97;;;8.99;69.04
21011;BME280;10663;42.714;23.274;2023-02-20T01:17:11;95138.50;;;8.94;69.49
21011;BME280;10663;42.714;23.274;2023-02-20T01:18:43;95131.16;;;8.96;69.21
21011;BME280;10663;42.714;23.274;2023-02-20T01:20:14;95142.75;;;8.95;69.59
21011;BME280;10663;42.714;23.274;2023-02-20T01:21:45;95144.59;;;8.94;69.68
21011;BME280;10663;42.714;23.274;2023-02-20T01:23:15;95148.94;;;9.00;69.41
21011;BME280;10663;42.714;23.274;2023-02-20T01:24:46;95156.34;;;9.04;69.66
21011;BME280;10663;42.714;23.274;2023-02-20T01:26:19;95165.69;;;9.11;69.22
21011;BME280;10663;42.714;23.274;2023-02-20T01:27:50;95167.06;;;9.14;69.20
21011;BME280;10663;42.714;23.274;2023-02-20T01:29:21;95162.81;;;9.13;69.37
21011;BME280;10663;42.714;23.274;2023-02-20T01:30:52;95164.75;;;9.17;69.15
21011;BME280;10663;42.714;23.274;2023-02-20T01:32:23;95158.84;;;9.10;69.20
21011;BME280;10663;42.714;23.274;2023-02-20T01:33:54;95164.41;;;9.14;69.40
21011;BME280;10663;42.714;23.274;2023-02-20T01:35:25;95170.50;;;9.14;69.80
21011;BME280;10663;42.714;23.274;2023-02-20T01:37:00;95165.78;;;9.16;69.74
21011;BME280;10663;42.714;23.274;2023-02-20T01:38:31;95177.19;;;9.22;69.55
21011;BME280;10663;42.714;23.274;2023-02-20T01:40:03;95186.25;;;9.26;69.54
21011;BME280;10663;42.714;23.274;2023-02-20T01:41:34;95167.19;;;9.24;69.77
21011;BME280;10663;42.714;23.274;2023-02-20T01:43:06;95161.44;;;9.27;69.49
21011;BME280;10663;42.714;23.274;2023-02-20T01:44:36;95177.75;;;9.24;69.99
21011;BME280;10663;42.714;23.274;2023-02-20T01:47:58;95183.63;;;9.26;70.18
21011;BME280;10663;42.714;23.274;2023-02-20T01:49:38;95195.28;;;9.30;70.16
21011;BME280;10663;42.714;23.274;2023-02-20T01:51:10;95182.00;;;9.25;70.35
21011;BME280;10663;42.714;23.274;2023-02-20T01:52:43;95175.31;;;9.17;70.60
21011;BME280;10663;42.714;23.274;2023-02-20T01:54:17;95182.72;;;9.20;70.97
21011;BME280;10663;42.714;23.274;2023-02-20T01:56:02;95184.50;;;9.15;71.02
21011;BME280;10663;42.714;23.274;2023-02-20T01:57:39;95197.47;;;9.16;71.46
21011;BME280;10663;42.714;23.274;2023-02-20T01:59:12;95217.50;;;9.12;71.69
21011;BME280;10663;42.714;23.274;2023-02-20T02:00:44;95203.41;;;9.07;72.15
21011;BME280;10663;42.714;23.274;2023-02-20T02:02:15;95196.47;;;9.00;72.43
21011;BME280;10663;42.714;23.274;2023-02-20T02:03:48;95196.38;;;8.95;72.78
21011;BME280;10663;42.714;23.274;2023-02-20T02:05:23;95186.84;;;8.94;73.33
21011;BME280;10663;42.714;23.274;2023-02-20T02:06:58;95197.53;;;8.83;73.75
21011;BME280;10663;42.714;23.274;2023-02-20T02:08:30;95183.19;;;8.79;74.03
21011;BME280;10663;42.714;23.274;2023-02-20T02:10:06;95204.00;;;8.75;73.62
21011;BME280;10663;42.714;23.274;2023-02-20T02:11:38;95216.88;;;8.72;72.62
21011;BME280;10663;42.714;23.274;2023-02-20T02:13:09;95204.25;;;8.74;73.14
21011;BME280;10663;42.714;23.274;2023-02-20T02:14:43;95192.31;;;8.71;72.74
21011;BME280;10663;42.714;23.274;2023-02-20T02:16:29;95195.59;;;8.61;72.80
21011;BME280;10663;42.714;23.274;2023-02-20T02:18:42;95186.25;;;8.54;73.40
21011;BME280;10663;42.714;23.274;2023-02-20T02:36:27;95215.06;;;7.99;75.14
21011;BME280;10663;42.714;23.274;2023-02-20T02:38:20;95223.09;;;7.92;75.43
21011;BME280;10663;42.714;23.274;2023-02-20T02:40:13;95194.56;;;7.89;76.03
21011;BME280;10663;42.714;23.274;2023-02-20T02:41:55;95221.63;;;7.84;76.50
21011;BME280;10663;42.714;23.274;2023-02-20T02:44:17;95204.94;;;7.79;76.82
21011;BME280;10663;42.714;23.274;2023-02-20T02:45:28;95214.66;;;7.78;77.12
21011;BME280;10663;42.714;23.274;2023-02-20T02:47:04;95209.41;;;7.78;76.67
21011;BME280;10663;42.714;23.274;2023-02-20T02:48:46;95213.28;;;7.76;77.08
21011;BME280;10663;42.714;23.274;2023-02-20T02:50:28;95217.88;;;7.80;76.46
21011;BME280;10663;42.714;23.274;2023-02-20T02:52:03;95226.25;;;7.77;76.66
21011;BME280;10663;42.714;23.274;2023-02-20T02:53:34;95220.75;;;7.79;76.64
21011;BME280;10663;42.714;23.274;2023-02-20T02:55:07;95210.19;;;7.79;77.05
21011;BME280;10663;42.714;23.274;2023-02-20T02:56:41;95219.50;;;7.70;77.28
21011;BME280;10663;42.714;23.274;2023-02-20T02:58:15;95216.22;;;7.63;77.76
21011;BME280;10663;42.714;23.274;2023-02-20T02:59:48;95221.47;;;7.63;77.87
21011;BME280;10663;42.714;23.274;2023-02-20T03:01:22;95218.28;;;7.61;77.96
21011;BME280;10663;42.714;23.274;2023-02-20T03:04:49;95212.66;;;7.57;78.19
21011;BME280;10663;42.714;23.274;2023-02-20T03:06:28;95226.41;;;7.59;78.07
21011;BME280;10663;42.714;23.274;2023-02-20T03:08:06;95212.91;;;7.56;78.59
21011;BME280;10663;42.714;23.274;2023-02-20T03:09:56;95230.56;;;7.55;78.09
21011;BME280;10663;42.714;23.274;2023-02-20T03:11:31;95230.28;;;7.57;78.23
21011;BME280;10663;42.714;23.274;2023-02-20T03:13:04;95221.38;;;7.58;77.87
21011;BME280;10663;42.714;23.274;2023-02-20T03:14:42;95228.00;;;7.60;77.95
21011;BME280;10663;42.714;23.274;2023-02-20T03:18:40;95228.78;;;7.72;76.29
21011;BME280;10663;42.714;23.274;2023-02-20T03:20:14;95246.44;;;7.72;75.53
21011;BME280;10663;42.714;23.274;2023-02-20T03:21:47;95237.03;;;7.76;75.21
21011;BME280;10663;42.714;23.274;2023-02-20T03:23:24;95233.22;;;7.83;74.75
21011;BME280;10663;42.714;23.274;2023-02-20T03:25:02;95230.34;;;7.85;74.14
21011;BME280;10663;42.714;23.274;2023-02-20T03:26:38;95251.66;;;7.83;74.63
21011;BME280;10663;42.714;23.274;2023-02-20T03:28:28;95258.78;;;7.83;74.78
21011;BME280;10663;42.714;23.274;2023-02-20T03:30:01;95251.34;;;7.80;74.64
21011;BME280;10663;42.714;23.274;2023-02-20T03:31:38;95245.97;;;7.75;74.45
21011;BME280;10663;42.714;23.274;2023-02-20T03:33:21;95254.13;;;7.73;74.53
21011;BME280;10663;42.714;23.274;2023-02-20T03:35:16;95252.84;;;7.76;74.64
21011;BME280;10663;42.714;23.274;2023-02-20T03:37:18;95264.75;;;7.78;74.31
21011;BME280;10663;42.714;23.274;2023-02-20T03:39:15;95258.34;;;7.74;74.07
21011;BME280;10663;42.714;23.274;2023-02-20T03:41:06;95254.13;;;7.73;74.18
21011;BME280;10663;42.714;23.274;2023-02-20T03:43:00;95267.53;;;7.72;74.07
21011;BME280;10663;42.714;23.274;2023-02-20T03:44:52;95239.56;;;7.71;74.28
21011;BME280;10663;42.714;23.274;2023-02-20T03:46:24;95270.28;;;7.65;74.11
21011;BME280;10663;42.714;23.274;2023-02-20T03:48:00;95255.53;;;7.64;74.43
21011;BME280;10663;42.714;23.274;2023-02-20T03:49:39;95274.78;;;7.65;74.49
21011;BME280;10663;42.714;23.274;2023-02-20T03:51:14;95266.06;;;7.64;74.25
21011;BME280;10663;42.714;23.274;2023-02-20T03:53:08;95266.16;;;7.58;74.66
21011;BME280;10663;42.714;23.274;2023-02-20T03:54:40;95264.56;;;7.57;74.42
21011;BME280;10663;42.714;23.274;2023-02-20T03:56:18;95269.59;;;7.58;74.55
21011;BME280;10663;42.714;23.274;2023-02-20T03:57:56;95300.56;;;7.63;74.74
21011;BME280;10663;42.714;23.274;2023-02-20T03:59:36;95303.28;;;7.68;74.12
21011;BME280;10663;42.714;23.274;2023-02-20T04:01:10;95294.91;;;7.71;74.21
21011;BME280;10663;42.714;23.274;2023-02-20T04:02:47;95299.47;;;7.75;73.49
21011;BME280;10663;42.714;23.274;2023-02-20T04:04:28;95304.66;;;7.70;74.14
21011;BME280;10663;42.714;23.274;2023-02-20T04:06:03;95289.53;;;7.66;73.61
21011;BME280;10663;42.714;23.274;2023-02-20T04:07:49;95295.94;;;7.70;73.83
21011;BME280;10663;42.714;23.274;2023-02-20T04:09:27;95295.50;;;7.73;73.42
21011;BME280;10663;42.714;23.274;2023-02-20T04:11:14;95295.00;;;7.76;73.47
21011;BME280;10663;42.714;23.274;2023-02-20T04:12:47;95300.28;;;7.76;73.43
21011;BME280;10663;42.714;23.274;2023-02-20T04:14:21;95283.00;;;7.80;73.23
21011;BME280;10663;42.714;23.274;2023-02-20T04:16:00;95278.66;;;7.74;73.31
21011;BME280;10663;42.714;23.274;2023-02-20T04:17:37;95279.09;;;7.71;73.52
21011;BME280;10663;42.714;23.274;2023-02-20T04:19:09;95296.19;;;7.68;73.48
21011;BME280;10663;42.714;23.274;2023-02-20T04:20:40;95292.75;;;7.68;74.24
21011;BME280;10663;42.714;23.274;2023-02-20T04:22:33;95288.03;;;7.70;73.85
21011;BME280;10663;42.714;23.274;2023-02-20T04:24:09;95313.59;;;7.69;74.51
21011;BME280;10663;42.714;23.274;2023-02-20T04:27:17;95298.72;;;7.63;74.77
21011;BME280;10663;42.714;23.274;2023-02-20T04:28:54;95355.53;;;7.59;75.05
21011;BME280;10663;42.714;23.274;2023-02-20T04:30:25;95306.03;;;7.61;75.45
21011;BME280;10663;42.714;23.274;2023-02-20T04:31:56;95308.56;;;7.56;75.54
21011;BME280;10663;42.714;23.274;2023-02-20T04:33:29;95309.03;;;7.53;75.39
21011;BME280;10663;42.714;23.274;2023-02-20T04:35:06;95319.34;;;7.55;74.79
21011;BME280;10663;42.714;23.274;2023-02-20T04:36:39;95320.59;;;7.52;75.52
21011;BME280;10663;42.714;23.274;2023-02-20T04:38:12;95335.63;;;7.51;75.63
21011;BME280;10663;42.714;23.274;2023-02-20T04:39:43;95321.28;;;7.47;75.66
21011;BME280;10663;42.714;23.274;2023-02-20T04:41:15;95314.66;;;7.45;75.91
21011;BME280;10663;42.714;23.274;2023-02-20T04:42:46;95290.00;;;7.39;75.11
21011;BME280;10663;42.714;23.274;2023-02-20T04:44:17;95306.97;;;7.43;75.43
21011;BME280;10663;42.714;23.274;2023-02-20T04:46:06;95312.03;;;7.45;75.33
21011;BME280;10663;42.714;23.274;2023-02-20T04:47:38;95303.53;;;7.43;74.55
21011;BME280;10663;42.714;23.274;2023-02-20T04:49:09;95319.78;;;7.40;74.44
21011;BME280;10663;42.714;23.274;2023-02-20T04:50:41;95304.91;;;7.34;74.61
21011;BME280;10663;42.714;23.274;2023-02-20T04:52:13;95322.78;;;7.32;73.82
21011;BME280;10663;42.714;23.274;2023-02-20T04:53:44;95311.09;;;7.28;73.49
21011;BME280;10663;42.714;23.274;2023-02-20T04:55:15;95312.81;;;7.22;73.52
21011;BME280;10663;42.714;23.274;2023-02-20T04:56:46;95306.06;;;7.26;72.91
21011;BME280;10663;42.714;23.274;2023-02-20T04:58:18;95315.44;;;7.22;72.72
21011;BME280;10663;42.714;23.274;2023-02-20T04:59:58;95342.34;;;7.24;72.01
21011;BME280;10663;42.714;23.274;2023-02-20T05:01:29;95304.31;;;7.20;72.11
21011;BME280;10663;42.714;23.274;2023-02-20T05:03:00;95323.09;;;7.12;71.30
21011;BME280;10663;42.714;23.274;2023-02-20T05:04:31;95313.94;;;7.14;71.18
21011;BME280;10663;42.714;23.274;2023-02-20T05:06:02;95344.88;;;7.19;70.60
21011;BME280;10663;42.714;23.274;2023-02-20T05:07:33;95332.97;;;7.17;70.17
21011;BME280;10663;42.714;23.274;2023-02-20T05:09:04;95351.50;;;7.10;69.87
21011;BME280;10663;42.714;23.274;2023-02-20T05:10:36;95326.66;;;7.06;69.10
21011;BME280;10663;42.714;23.274;2023-02-20T05:12:07;95332.94;;;7.05;68.79
21011;BME280;10663;42.714;23.274;2023-02-20T05:13:37;95326.44;;;7.07;68.63
21011;BME280;10663;42.714;23.274;2023-02-20T05:15:08;95336.00;;;7.02;68.41
21011;BME280;10663;42.714;23.274;2023-02-20T05:16:41;95337.28;;;6.99;68.42
21011;BME280;10663;42.714;23.274;2023-02-20T05:18:12;95342.88;;;7.03;67.85
21011;BME280;10663;42.714;23.274;2023-02-20T05:19:43;95341.41;;;6.95;67.71
21011;BME280;10663;42.714;23.274;2023-02-20T05:21:14;95357.56;;;6.99;68.08
21011;BME280;10663;42.714;23.274;2023-02-20T05:23:03;95336.13;;;6.95;67.70
21011;BME280;10663;42.714;23.274;2023-02-20T05:24:34;95369.56;;;6.95;67.91
21011;BME280;10663;42.714;23.274;2023-02-20T05:26:09;95351.59;;;6.92;68.38
21011;BME280;10663;42.714;23.274;2023-02-20T05:27:40;95352.28;;;6.99;67.81
21011;BME280;10663;42.714;23.274;2023-02-20T05:29:12;95369.91;;;6.98;68.15
21011;BME280;10663;42.714;23.274;2023-02-20T05:30:43;95364.75;;;7.03;67.78
21011;BME280;10663;42.714;23.274;2023-02-20T05:32:15;95367.06;;;7.00;68.43
21011;BME280;10663;42.714;23.274;2023-02-20T05:33:46;95352.63;;;6.91;68.09
21011;BME280;10663;42.714;23.274;2023-02-20T05:35:17;95368.63;;;6.89;68.94
21011;BME280;10663;42.714;23.274;2023-02-20T05:36:47;95374.59;;;6.96;68.71
21011;BME280;10663;42.714;23.274;2023-02-20T05:38:18;95382.94;;;6.93;68.91
21011;BME280;10663;42.714;23.274;2023-02-20T05:39:49;95382.50;;;6.96;69.25
21011;BME280;10663;42.714;23.274;2023-02-20T05:41:20;95374.50;;;7.03;68.93
21011;BME280;10663;42.714;23.274;2023-02-20T05:42:51;95421.56;;;7.11;69.23
21011;BME280;10663;42.714;23.274;2023-02-20T05:44:24;95388.81;;;7.07;70.03
21011;BME280;10663;42.714;23.274;2023-02-20T05:45:54;95377.25;;;7.08;70.05
21011;BME280;10663;42.714;23.274;2023-02-20T05:47:25;95371.19;;;7.07;69.89
21011;BME280;10663;42.714;23.274;2023-02-20T05:48:56;95419.72;;;7.11;70.26
21011;BME280;10663;42.714;23.274;2023-02-20T05:50:27;95385.97;;;7.08;70.53
21011;BME280;10663;42.714;23.274;2023-02-20T05:51:58;95392.25;;;7.07;70.71
21011;BME280;10663;42.714;23.274;2023-02-20T05:53:30;95390.75;;;7.11;70.63
21011;BME280;10663;42.714;23.274;2023-02-20T05:55:01;95387.69;;;7.14;70.13
21011;BME280;10663;42.714;23.274;2023-02-20T05:56:31;95380.16;;;7.18;69.67
21011;BME280;10663;42.714;23.274;2023-02-20T05:58:03;95383.22;;;7.15;70.08
21011;BME280;10663;42.714;23.274;2023-02-20T05:59:33;95411.88;;;7.23;69.69
21011;BME280;10663;42.714;23.274;2023-02-20T06:01:04;95395.41;;;7.28;69.77
21011;BME280;10663;42.714;23.274;2023-02-20T06:02:35;95406.97;;;7.27;69.43
21011;BME280;10663;42.714;23.274;2023-02-20T06:04:07;95391.84;;;7.34;68.74
21011;BME280;10663;42.714;23.274;2023-02-20T06:05:38;95395.63;;;7.38;69.01
21011;BME280;10663;42.714;23.274;2023-02-20T06:07:09;95398.16;;;7.44;68.23
21011;BME280;10663;42.714;23.274;2023-02-20T06:08:40;95404.78;;;7.47;68.05
21011;BME280;10663;42.714;23.274;2023-02-20T06:10:11;95403.69;;;7.55;68.35
21011;BME280;10663;42.714;23.274;2023-02-20T06:11:49;95400.34;;;7.59;66.77
21011;BME280;10663;42.714;23.274;2023-02-20T06:13:20;95403.22;;;7.58;66.79
21011;BME280;10663;42.714;23.274;2023-02-20T06:14:51;95428.19;;;7.67;65.39
21011;BME280;10663;42.714;23.274;2023-02-20T06:16:24;95418.91;;;7.76;63.44
21011;BME280;10663;42.714;23.274;2023-02-20T06:17:55;95406.88;;;7.68;63.92
21011;BME280;10663;42.714;23.274;2023-02-20T06:19:25;95403.47;;;7.79;63.37
21011;BME280;10663;42.714;23.274;2023-02-20T06:20:56;95414.59;;;7.81;63.34
21011;BME280;10663;42.714;23.274;2023-02-20T06:22:27;95412.84;;;7.87;62.99
21011;BME280;10663;42.714;23.274;2023-02-20T06:23:58;95404.25;;;7.80;63.51
21011;BME280;10663;42.714;23.274;2023-02-20T06:25:29;95409.53;;;7.92;62.52
21011;BME280;10663;42.714;23.274;2023-02-20T06:27:00;95410.44;;;7.97;62.85
21011;BME280;10663;42.714;23.274;2023-02-20T06:28:31;95422.38;;;8.00;62.86
21011;BME280;10663;42.714;23.274;2023-02-20T06:30:02;95412.63;;;8.00;62.42
21011;BME280;10663;42.714;23.274;2023-02-20T06:31:33;95415.94;;;8.07;62.11
21011;BME280;10663;42.714;23.274;2023-02-20T06:33:04;95411.25;;;8.09;62.08
21011;BME280;10663;42.714;23.274;2023-02-20T06:34:35;95435.19;;;8.19;61.51
21011;BME280;10663;42.714;23.274;2023-02-20T06:36:18;95417.88;;;8.23;62.00
21011;BME280;10663;42.714;23.274;2023-02-20T06:37:50;95428.88;;;8.20;62.29
21011;BME280;10663;42.714;23.274;2023-02-20T06:39:21;95426.81;;;8.22;62.34
21011;BME280;10663;42.714;23.274;2023-02-20T06:40:52;95424.28;;;8.27;62.29
21011;BME280;10663;42.714;23.274;2023-02-20T06:42:23;95425.91;;;8.05;62.65
21011;BME280;10663;42.714;23.274;2023-02-20T06:43:53;95427.53;;;8.06;62.56
21011;BME280;10663;42.714;23.274;2023-02-20T06:45:24;95464.81;;;8.10;62.57
21011;BME280;10663;42.714;23.274;2023-02-20T06:46:55;95433.25;;;8.03;62.08
21011;BME280;10663;42.714;23.274;2023-02-20T06:48:26;95450.56;;;7.99;61.32
21011;BME280;10663;42.714;23.274;2023-02-20T06:49:57;95456.06;;;7.98;61.21
21011;BME280;10663;42.714;23.274;2023-02-20T06:51:32;95458.38;;;7.82;61.69
21011;BME280;10663;42.714;23.274;2023-02-20T06:53:03;95451.59;;;7.86;61.38
21011;BME280;10663;42.714;23.274;2023-02-20T06:54:34;95448.59;;;7.83;61.10
21011;BME280;10663;42.714;23.274;2023-02-20T06:56:08;95441.28;;;7.85;61.32
21011;BME280;10663;42.714;23.274;2023-02-20T06:57:40;95460.31;;;7.87;61.38
21011;BME280;10663;42.714;23.274;2023-02-20T06:59:11;95443.81;;;7.92;61.09
21011;BME280;10663;42.714;23.274;2023-02-20T07:00:42;95450.34;;;7.89;61.44
21011;BME280;10663;42.714;23.274;2023-02-20T07:02:14;95473.16;;;7.95;60.98
21011;BME280;10663;42.714;23.274;2023-02-20T07:03:48;95445.84;;;8.01;61.05
21011;BME280;10663;42.714;23.274;2023-02-20T07:05:20;95433.81;;;7.94;60.21
21011;BME280;10663;42.714;23.274;2023-02-20T07:06:51;95439.91;;;8.06;59.56
21011;BME280;10663;42.714;23.274;2023-02-20T07:08:21;95445.53;;;8.09;59.28
21011;BME280;10663;42.714;23.274;2023-02-20T07:09:52;95482.44;;;8.21;59.20
21011;BME280;10663;42.714;23.274;2023-02-20T07:11:23;95469.03;;;8.22;59.53
21011;BME280;10663;42.714;23.274;2023-02-20T07:12:54;95448.97;;;8.33;58.68
21011;BME280;10663;42.714;23.274;2023-02-20T07:14:25;95451.94;;;8.25;57.68
21011;BME280;10663;42.714;23.274;2023-02-20T07:15:56;95463.53;;;8.12;57.87
21011;BME280;10663;42.714;23.274;2023-02-20T07:17:26;95465.13;;;8.13;58.33
21011;BME280;10663;42.714;23.274;2023-02-20T07:18:57;95449.63;;;8.28;57.98
21011;BME280;10663;42.714;23.274;2023-02-20T07:20:28;95510.66;;;8.20;57.78
21011;BME280;10663;42.714;23.274;2023-02-20T07:21:59;95489.22;;;8.17;57.17
21011;BME280;10663;42.714;23.274;2023-02-20T07:23:30;95464.00;;;8.33;57.02
21011;BME280;10663;42.714;23.274;2023-02-20T07:25:01;95474.88;;;8.24;55.90
21011;BME280;10663;42.714;23.274;2023-02-20T07:26:32;95511.69;;;8.08;56.66
21011;BME280;10663;42.714;23.274;2023-02-20T07:28:02;95538.75;;;8.03;56.75
21011;BME280;10663;42.714;23.274;2023-02-20T07:29:33;95473.63;;;8.04;56.75
21011;BME280;10663;42.714;23.274;2023-02-20T07:31:04;95480.28;;;8.06;57.18
21011;BME280;10663;42.714;23.274;2023-02-20T07:32:35;95455.97;;;8.04;56.35
21011;BME280;10663;42.714;23.274;2023-02-20T07:34:06;95494.94;;;7.91;56.66
21011;BME280;10663;42.714;23.274;2023-02-20T07:35:41;95469.59;;;7.89;57.28
21011;BME280;10663;42.714;23.274;2023-02-20T07:37:13;95457.66;;;7.87;57.09
21011;BME280;10663;42.714;23.274;2023-02-20T07:38:55;95460.31;;;7.87;57.05
21011;BME280;10663;42.714;23.274;2023-02-20T07:40:26;95471.78;;;7.81;56.85
21011;BME280;10663;42.714;23.274;2023-02-20T07:41:57;95484.03;;;7.75;56.09
21011;BME280;10663;42.714;23.274;2023-02-20T07:43:47;95469.94;;;7.70;56.03
21011;BME280;10663;42.714;23.274;2023-02-20T07:45:18;95503.50;;;7.63;55.54
21011;BME280;10663;42.714;23.274;2023-02-20T07:46:49;95471.88;;;7.63;56.12
21011;BME280;10663;42.714;23.274;2023-02-20T07:48:19;95515.50;;;7.59;56.22
21011;BME280;10663;42.714;23.274;2023-02-20T07:49:50;95515.88;;;7.62;56.50
21011;BME280;10663;42.714;23.274;2023-02-20T07:51:21;95475.09;;;7.65;56.17
21011;BME280;10663;42.714;23.274;2023-02-20T07:52:52;95485.16;;;7.68;56.22
21011;BME280;10663;42.714;23.274;2023-02-20T07:54:22;95477.38;;;7.73;55.70
21011;BME280;10663;42.714;23.274;2023-02-20T07:55:53;95470.63;;;7.77;56.29
21011;BME280;10663;42.714;23.274;2023-02-20T07:57:24;95465.81;;;7.74;56.09
21011;BME280;10663;42.714;23.274;2023-02-20T07:58:55;95487.59;;;7.81;55.46
21011;BME280;10663;42.714;23.274;2023-02-20T08:00:26;95484.38;;;7.79;55.69
21011;BME280;10663;42.714;23.274;2023-02-20T08:01:57;95469.47;;;7.84;55.61
21011;BME280;10663;42.714;23.274;2023-02-20T08:03:28;95463.84;;;7.93;55.10
21011;BME280;10663;42.714;23.274;2023-02-20T08:04:59;95483.91;;;7.94;54.49
21011;BME280;10663;42.714;23.274;2023-02-20T08:06:30;95481.19;;;8.00;54.92
21011;BME280;10663;42.714;23.274;2023-02-20T08:08:00;95463.19;;;7.97;53.70
21011;BME280;10663;42.714;23.274;2023-02-20T08:09:31;95473.03;;;8.02;54.15
21011;BME280;10663;42.714;23.274;2023-02-20T08:11:04;95461.91;;;8.11;54.14
21011;BME280;10663;42.714;23.274;2023-02-20T08:12:35;95501.97;;;8.08;53.38
21011;BME280;10663;42.714;23.274;2023-02-20T08:14:06;95459.03;;;8.13;53.12
21011;BME280;10663;42.714;23.274;2023-02-20T08:15:37;95487.16;;;8.19;52.82
21011;BME280;10663;42.714;23.274;2023-02-20T08:17:08;95471.44;;;8.24;52.42
21011;BME280;10663;42.714;23.274;2023-02-20T08:18:42;95471.56;;;8.17;52.13
21011;BME280;10663;42.714;23.274;2023-02-20T08:20:15;95478.09;;;8.26;52.08
21011;BME280;10663;42.714;23.274;2023-02-20T08:21:46;95488.88;;;8.25;52.51
21011;BME280;10663;42.714;23.274;2023-02-20T08:23:20;95464.31;;;8.24;51.90
21011;BME280;10663;42.714;23.274;2023-02-20T08:24:54;95478.34;;;8.37;51.50
21011;BME280;10663;42.714;23.274;2023-02-20T08:26:25;95525.59;;;8.26;51.89
21011;BME280;10663;42.714;23.274;2023-02-20T08:28:00;95502.66;;;8.27;51.85
21011;BME280;10663;42.714;23.274;2023-02-20T08:29:36;95474.31;;;8.22;52.02
21011;BME280;10663;42.714;23.274;2023-02-20T08:31:11;95493.69;;;8.40;51.96
21011;BME280;10663;42.714;23.274;2023-02-20T08:32:44;95486.94;;;8.44;51.10
21011;BME280;10663;42.714;23.274;2023-02-20T08:34:20;95524.91;;;8.43;51.11
21011;BME280;10663;42.714;23.274;2023-02-20T08:35:51;95567.72;;;8.45;51.44
21011;BME280;10663;42.714;23.274;2023-02-20T08:37:23;95504.75;;;8.37;51.36
21011;BME280;10663;42.714;23.274;2023-02-20T08:38:54;95516.66;;;8.39;51.50
21011;BME280;10663;42.714;23.274;2023-02-20T08:40:25;95541.56;;;8.43;51.61